Time;durP1;ratioP1;P1;durP2;ratioP2;P2;SDS_P1;SDS_P2;PMS_P1;PMS_P2;Temp;Humidity;BMP_temperature;BMP_pressure;BME280_temperature;BME280_humidity;BME280_pressure;Samples;Min_cycle;Max_cycle;Signal;HPM_P1;HPM_P2
2023/05/25 00:02:15;;;;;;;9.90;4.78;;;;;;;17.90;68.91;100280.38;1744947;82;21090;-65
2023/05/25 00:04:47;;;;;;;10.43;4.83;;;;;;;17.86;68.87;100275.03;1744945;82;21070;-64
2023/05/25 00:07:17;;;;;;;7.83;5.42;;;;;;;17.83;68.97;100278.30;1744956;82;21089;-65
2023/05/25 00:09:50;;;;;;;10.95;4.90;;;;;;;17.82;69.07;100284.94;1744948;82;21486;-65
2023/05/25 00:12:20;;;;;;;7.55;4.83;;;;;;;17.78;69.10;100281.52;1745019;82;21047;-64
2023/05/25 00:14:49;;;;;;;11.57;4.58;;;;;;;17.73;69.27;100282.27;1744892;82;21153;-65
2023/05/25 00:17:18;;;;;;;9.55;5.33;;;;;;;17.72;69.42;100280.58;1745181;82;21011;-65
2023/05/25 00:19:48;;;;;;;10.10;5.30;;;;;;;17.72;69.49;100288.90;1714450;82;21051;-64
2023/05/25 00:22:19;;;;;;;9.53;4.85;;;;;;;17.69;69.55;100293.00;1745109;82;21047;-65
2023/05/25 00:24:49;;;;;;;8.28;4.92;;;;;;;17.66;69.66;100294.89;1745060;82;21010;-64
2023/05/25 00:27:18;;;;;;;9.15;4.80;;;;;;;17.65;69.70;100292.33;1744945;82;21090;-64
2023/05/25 00:29:55;;;;;;;9.75;5.25;;;;;;;17.61;69.75;100288.37;1745248;82;21066;-64
2023/05/25 00:32:25;;;;;;;12.20;5.40;;;;;;;17.54;69.98;100280.71;1745056;82;21644;-65
2023/05/25 00:34:55;;;;;;;8.60;4.92;;;;;;;17.50;70.19;100283.13;1744891;82;21066;-65
2023/05/25 00:37:24;;;;;;;9.73;5.80;;;;;;;17.48;70.37;100282.54;1735602;82;21143;-64
2023/05/25 00:39:54;;;;;;;12.20;5.87;;;;;;;17.51;70.34;100282.05;1734693;83;21051;-66
2023/05/25 00:42:24;;;;;;;9.75;5.30;;;;;;;17.54;70.28;100277.94;1734945;83;21071;-64
2023/05/25 00:44:53;;;;;;;7.70;5.30;;;;;;;17.56;70.27;100283.56;1734657;83;21472;-65
2023/05/25 00:47:23;;;;;;;13.05;4.92;;;;;;;17.53;70.38;100274.33;1734891;83;21086;-64
2023/05/25 00:49:53;;;;;;;10.70;5.10;;;;;;;17.51;70.43;100275.66;1734845;83;21095;-65
2023/05/25 00:52:25;;;;;;;11.08;5.35;;;;;;;17.43;70.46;100277.73;1734733;82;21071;-65
2023/05/25 00:54:54;;;;;;;8.45;5.35;;;;;;;17.33;70.64;100278.91;1734655;83;21070;-64
2023/05/25 00:57:25;;;;;;;9.83;5.53;;;;;;;17.23;70.95;100272.31;1734907;83;21054;-65
2023/05/25 00:59:54;;;;;;;8.03;5.40;;;;;;;17.15;71.30;100272.16;1714196;83;21522;-64
2023/05/25 01:02:24;;;;;;;9.55;5.53;;;;;;;17.10;71.55;100277.58;1734747;83;21122;-64
2023/05/25 01:04:58;;;;;;;8.65;5.30;;;;;;;17.02;71.82;100277.95;1692076;82;21092;-65
2023/05/25 01:07:28;;;;;;;10.15;5.65;;;;;;;17.00;72.11;100275.97;1734776;82;21074;-64
2023/05/25 01:10:01;;;;;;;13.90;5.65;;;;;;;17.01;72.23;100285.42;1714225;83;21051;-66
2023/05/25 01:12:31;;;;;;;9.35;5.20;;;;;;;17.02;72.27;100284.34;1734629;82;21490;-65
2023/05/25 01:15:02;;;;;;;11.43;5.95;;;;;;;17.02;72.31;100284.87;1734582;82;21059;-66
2023/05/25 01:17:36;;;;;;;12.78;6.12;;;;;;;17.06;72.36;100288.30;1734694;83;21090;-65
2023/05/25 01:20:08;;;;;;;19.10;7.08;;;;;;;17.09;72.23;100291.13;1734620;83;21525;-65
2023/05/25 01:23:12;;;;;;;15.25;6.20;;;;;;;17.11;72.11;100287.58;1734596;83;21510;-64
2023/05/25 01:25:49;;;;;;;14.75;6.50;;;;;;;17.15;72.17;100283.23;1734864;83;21078;-63
2023/05/25 01:28:30;;;;;;;12.95;6.22;;;;;;;17.18;72.02;100285.52;1734694;83;21035;-64
2023/05/25 01:30:59;;;;;;;10.23;6.58;;;;;;;17.16;71.88;100280.76;1714267;83;21074;-64
2023/05/25 01:33:29;;;;;;;12.23;6.47;;;;;;;17.19;71.96;100275.28;1734929;83;21090;-64
2023/05/25 01:35:59;;;;;;;11.48;5.90;;;;;;;17.24;71.99;100274.84;1733994;82;21490;-64
2023/05/25 01:38:28;;;;;;;15.68;6.45;;;;;;;17.27;71.69;100276.28;1731428;83;21007;-64
2023/05/25 01:40:58;;;;;;;11.15;6.25;;;;;;;17.24;71.51;100276.23;1711309;83;21023;-65
2023/05/25 01:43:28;;;;;;;10.65;5.95;;;;;;;17.25;71.51;100283.99;1731288;81;21083;-65
2023/05/25 01:46:05;;;;;;;13.13;5.70;;;;;;;17.25;71.39;100284.83;1731503;82;21051;-65
2023/05/25 01:49:16;;;;;;;13.03;6.33;;;;;;;17.22;71.41;100285.33;1710964;83;21511;-65
2023/05/25 01:51:57;;;;;;;13.35;6.45;;;;;;;17.23;71.50;100294.47;1731420;82;21051;-65
2023/05/25 01:54:32;;;;;;;10.05;6.60;;;;;;;17.21;71.36;100297.48;1727182;82;21048;-65
2023/05/25 01:57:01;;;;;;;11.78;6.33;;;;;;;17.19;71.39;100292.73;1731759;82;21099;-65
2023/05/25 01:59:31;;;;;;;11.25;6.17;;;;;;;17.21;71.43;100296.64;1731546;82;21020;-64
2023/05/25 02:02:00;;;;;;;12.35;6.37;;;;;;;17.21;71.38;100298.03;1731818;82;21499;-63
2023/05/25 02:04:30;;;;;;;11.75;6.00;;;;;;;17.17;71.42;100300.44;1731892;82;21058;-65
2023/05/25 02:07:00;;;;;;;14.05;6.50;;;;;;;17.11;71.59;100300.88;1732013;82;21031;-66
2023/05/25 02:09:28;;;;;;;11.48;6.85;;;;;;;17.07;71.77;100298.30;1731838;82;21083;-65
2023/05/25 02:12:00;;;;;;;11.75;6.50;;;;;;;17.05;71.91;100302.39;1731506;81;21063;-63
2023/05/25 02:14:29;;;;;;;11.43;6.60;;;;;;;17.01;72.13;100295.11;1731582;82;21511;-64
2023/05/25 02:17:00;;;;;;;13.50;6.72;;;;;;;16.99;72.16;100295.05;1731560;82;21078;-63
2023/05/25 02:19:30;;;;;;;12.63;7.00;;;;;;;16.94;72.24;100297.16;1731624;81;21459;-64
2023/05/25 02:22:00;;;;;;;11.80;6.87;;;;;;;16.91;72.33;100293.50;1731607;82;21475;-63
2023/05/25 02:24:29;;;;;;;14.80;6.97;;;;;;;16.92;72.40;100301.25;1731664;82;21095;-65
2023/05/25 02:27:00;;;;;;;14.35;6.62;;;;;;;16.95;72.40;100304.92;1731570;82;21922;-64
2023/05/25 02:29:31;;;;;;;11.22;6.20;;;;;;;16.98;72.36;100305.28;1731852;82;21155;-63
2023/05/25 02:32:01;;;;;;;10.82;6.20;;;;;;;17.02;72.29;100302.33;1731915;81;21146;-65
2023/05/25 02:34:31;;;;;;;12.07;6.20;;;;;;;17.03;72.10;100295.70;1731811;82;21043;-64
2023/05/25 02:37:00;;;;;;;10.58;6.10;;;;;;;17.08;71.93;100300.52;1735664;82;21110;-63
2023/05/25 02:39:30;;;;;;;10.72;6.05;;;;;;;17.08;71.79;100301.36;1739906;81;21058;-64
2023/05/25 02:42:00;;;;;;;12.68;6.58;;;;;;;17.07;71.81;100305.75;1739938;82;21015;-64
2023/05/25 02:44:31;;;;;;;8.75;6.00;;;;;;;17.06;71.76;100304.07;1739668;82;21019;-67
2023/05/25 02:47:00;;;;;;;10.38;6.28;;;;;;;17.05;71.77;100307.38;1719029;82;21079;-64
2023/05/25 02:49:30;;;;;;;17.82;6.95;;;;;;;17.04;71.77;100305.70;1739922;82;21035;-64
2023/05/25 02:51:59;;;;;;;12.35;6.15;;;;;;;17.05;71.69;100315.69;1739897;82;21067;-64
2023/05/25 02:54:28;;;;;;;11.03;6.15;;;;;;;17.06;71.71;100306.84;1739736;82;21046;-64
2023/05/25 02:56:57;;;;;;;9.45;5.83;;;;;;;17.06;71.72;100310.45;1739678;82;21034;-66
2023/05/25 02:59:29;;;;;;;12.10;6.72;;;;;;;17.04;71.70;100313.16;1740006;82;21483;-63
2023/05/25 03:01:59;;;;;;;16.67;7.22;;;;;;;17.02;71.67;100315.33;1739626;82;21503;-64
2023/05/25 03:04:33;;;;;;;17.07;7.28;;;;;;;17.00;71.87;100312.80;1739717;82;21110;-66
2023/05/25 03:07:00;;;;;;;14.70;6.45;;;;;;;17.01;71.98;100320.56;1719516;82;21106;-65
2023/05/25 03:09:30;;;;;;;11.57;6.20;;;;;;;16.97;72.02;100316.59;1739775;82;21462;-65
2023/05/25 03:12:02;;;;;;;10.80;6.00;;;;;;;16.90;72.15;100316.69;1739696;81;21031;-65
2023/05/25 03:14:33;;;;;;;9.23;5.75;;;;;;;16.85;72.30;100315.19;1739879;81;21082;-64
2023/05/25 03:17:06;;;;;;;13.58;6.62;;;;;;;16.83;72.41;100310.44;1739702;82;21047;-65
2023/05/25 03:19:36;;;;;;;11.90;6.40;;;;;;;16.86;72.46;100313.27;1739866;82;21047;-64
2023/05/25 03:22:07;;;;;;;17.23;7.55;;;;;;;16.89;72.46;100313.62;1739701;82;21027;-64
2023/05/25 03:24:40;;;;;;;11.73;6.40;;;;;;;16.96;72.40;100306.61;1739645;82;21062;-71
2023/05/25 03:27:12;;;;;;;15.15;6.70;;;;;;;17.05;72.21;100313.45;1739639;82;21054;-64
2023/05/25 03:29:41;;;;;;;10.93;6.37;;;;;;;17.11;71.97;100313.88;1739800;82;21467;-64
2023/05/25 03:32:10;;;;;;;12.80;6.15;;;;;;;17.20;71.79;100313.80;1739698;82;21063;-64
2023/05/25 03:34:40;;;;;;;12.03;6.90;;;;;;;17.25;71.60;100315.30;1739697;82;21537;-65
2023/05/25 03:37:11;;;;;;;15.13;7.22;;;;;;;17.33;71.38;100321.00;1737484;82;21087;-65
2023/05/25 03:39:41;;;;;;;13.20;7.05;;;;;;;17.41;71.05;100322.00;1714059;83;21517;-66
2023/05/25 03:42:11;;;;;;;11.57;7.08;;;;;;;17.49;70.68;100319.39;1734747;82;21531;-63
2023/05/25 03:44:41;;;;;;;12.37;6.42;;;;;;;17.58;70.28;100323.49;1734967;82;21072;-65
2023/05/25 03:47:12;;;;;;;13.10;6.47;;;;;;;17.66;69.95;100318.95;1734672;82;21491;-64
2023/05/25 03:49:41;;;;;;;12.00;6.45;;;;;;;17.72;69.78;100316.61;1734749;83;21003;-63
2023/05/25 03:52:12;;;;;;;13.30;6.05;;;;;;;17.79;69.54;100314.53;1734690;83;21158;-64
2023/05/25 03:54:42;;;;;;;12.65;5.90;;;;;;;17.86;69.30;100308.84;1734860;83;21067;-63
2023/05/25 03:57:12;;;;;;;15.03;6.58;;;;;;;17.95;69.10;100313.73;1714353;83;21056;-64
2023/05/25 03:59:42;;;;;;;12.43;6.30;;;;;;;18.02;68.96;100314.42;1713972;83;21525;-64
2023/05/25 04:02:12;;;;;;;13.55;6.60;;;;;;;18.11;68.79;100312.63;1734810;83;21541;-65
2023/05/25 04:04:42;;;;;;;20.95;7.60;;;;;;;18.18;68.62;100308.61;1734629;83;21051;-65
2023/05/25 04:07:12;;;;;;;14.78;6.83;;;;;;;18.25;68.48;100308.48;1734889;83;21059;-64
2023/05/25 04:09:41;;;;;;;18.52;7.85;;;;;;;18.29;68.35;100310.51;1734915;82;21079;-64
2023/05/25 04:12:10;;;;;;;16.17;7.08;;;;;;;18.36;68.26;100312.57;1734820;82;21126;-64
2023/05/25 04:14:41;;;;;;;14.20;8.28;;;;;;;18.43;68.10;100313.80;1734648;83;21636;-62
2023/05/25 04:17:12;;;;;;;18.25;8.23;;;;;;;18.53;67.78;100312.58;1734960;83;21058;-63
2023/05/25 04:19:42;;;;;;;26.48;8.30;;;;;;;18.63;67.46;100311.39;1734997;82;21063;-64
2023/05/25 04:22:11;;;;;;;14.10;7.33;;;;;;;18.74;67.18;100321.27;1734893;82;21110;-66
2023/05/25 04:24:42;;;;;;;10.93;6.53;;;;;;;18.83;66.86;100315.58;1734914;82;21011;-64
2023/05/25 04:27:13;;;;;;;19.02;6.83;;;;;;;18.89;67.21;100327.09;1734756;82;21484;-65
2023/05/25 04:29:42;;;;;;;12.13;6.95;;;;;;;18.93;67.47;100329.64;1734734;83;21035;-64
2023/05/25 04:32:31;;;;;;;19.20;7.75;;;;;;;18.97;67.50;100330.27;1734859;83;21086;-64
2023/05/25 04:35:05;;;;;;;13.35;6.83;;;;;;;19.04;67.89;100325.09;1732888;82;21505;-65
2023/05/25 04:37:39;;;;;;;16.05;5.53;;;;;;;19.10;68.01;100319.90;1732415;82;21476;-64
2023/05/25 04:40:12;;;;;;;6.47;3.30;;;;;;;19.17;67.82;100318.61;1731748;83;21071;-64
2023/05/25 04:42:43;;;;;;;8.90;3.83;;;;;;;19.27;66.43;100317.36;1731665;82;21015;-66
2023/05/25 04:45:16;;;;;;;7.72;3.83;;;;;;;19.39;64.77;100317.80;1738761;82;21051;-63
2023/05/25 04:47:46;;;;;;;8.03;3.58;;;;;;;19.51;64.24;100317.98;1732145;82;21039;-63
2023/05/25 04:50:16;;;;;;;10.43;3.12;;;;;;;19.62;63.74;100314.81;1732017;82;21055;-64
2023/05/25 04:52:47;;;;;;;4.78;2.87;;;;;;;19.73;62.77;100312.45;1738695;82;21479;-64
2023/05/25 04:55:18;;;;;;;7.05;3.65;;;;;;;19.87;61.47;100312.33;1732200;82;21557;-64
2023/05/25 04:57:52;;;;;;;6.50;3.40;;;;;;;20.09;60.77;100315.06;1731433;82;21105;-64
2023/05/25 05:00:22;;;;;;;8.03;3.08;;;;;;;20.38;60.15;100318.44;1731680;83;21039;-64
2023/05/25 05:02:58;;;;;;;6.22;3.00;;;;;;;20.67;59.24;100317.60;1731893;81;21051;-64
2023/05/25 05:05:27;;;;;;;8.35;3.25;;;;;;;20.96;58.25;100309.77;1731645;82;21550;-64
2023/05/25 05:07:58;;;;;;;5.87;3.12;;;;;;;21.33;56.96;100320.88;1731883;82;21490;-64
2023/05/25 05:10:28;;;;;;;6.37;2.80;;;;;;;21.67;55.69;100318.56;1731479;82;21451;-65
2023/05/25 05:12:59;;;;;;;5.20;2.77;;;;;;;21.98;54.67;100314.47;1731748;82;21114;-64
2023/05/25 05:15:28;;;;;;;8.70;2.90;;;;;;;22.33;53.83;100320.18;1731514;82;21521;-65
2023/05/25 05:18:00;;;;;;;4.90;2.60;;;;;;;22.67;52.54;100314.88;1731722;81;21535;-63
2023/05/25 05:20:30;;;;;;;7.12;2.65;;;;;;;22.98;51.35;100314.36;1731516;82;21047;-62
2023/05/25 05:23:00;;;;;;;3.22;2.42;;;;;;;23.29;50.37;100315.13;1731432;82;21075;-63
2023/05/25 05:25:31;;;;;;;5.42;2.50;;;;;;;23.69;48.98;100311.39;1731427;82;21055;-63
2023/05/25 05:28:00;;;;;;;6.37;3.30;;;;;;;24.11;48.15;100314.28;1731621;83;21096;-63
2023/05/25 05:30:31;;;;;;;8.03;3.83;;;;;;;24.46;47.09;100317.98;1738172;82;21494;-64
2023/05/25 05:33:01;;;;;;;11.00;3.55;;;;;;;24.75;46.33;100318.05;1731549;82;21055;-63
2023/05/25 05:35:33;;;;;;;4.62;2.92;;;;;;;24.90;45.47;100318.75;1731526;82;21023;-64
2023/05/25 05:38:04;;;;;;;5.00;3.58;;;;;;;25.05;45.44;100325.37;1738189;82;21080;-63
2023/05/25 05:40:35;;;;;;;7.80;3.50;;;;;;;25.15;44.60;100322.46;1732035;82;21079;-64
2023/05/25 05:43:09;;;;;;;3.55;2.60;;;;;;;25.33;44.41;100325.91;1731741;82;21055;-63
2023/05/25 05:45:38;;;;;;;3.90;2.95;;;;;;;25.54;44.03;100328.77;1731878;82;21043;-63
2023/05/25 05:48:09;;;;;;;5.67;3.08;;;;;;;25.84;43.48;100328.15;1732492;82;21090;-63
2023/05/25 05:50:40;;;;;;;7.17;3.50;;;;;;;26.12;42.76;100332.01;1732183;82;21976;-64
2023/05/25 05:53:12;;;;;;;6.05;3.05;;;;;;;26.31;42.45;100330.61;1732052;82;21055;-63
2023/05/25 05:55:41;;;;;;;8.38;2.87;;;;;;;26.46;41.52;100331.80;1712128;82;21128;-63
2023/05/25 05:58:11;;;;;;;8.00;3.55;;;;;;;26.65;41.32;100334.59;1732049;81;21043;-64
2023/05/25 06:00:40;;;;;;;4.60;3.00;;;;;;;26.65;41.32;100334.59;1731842;82;21075;-63
2023/05/25 06:03:10;;;;;;;6.20;3.10;;;;;;;26.78;40.74;100336.08;1731536;82;21491;-62
2023/05/25 06:05:40;;;;;;;7.55;3.65;;;;;;;26.97;40.03;100330.97;1711420;83;21055;-63
2023/05/25 06:08:10;;;;;;;6.97;3.15;;;;;;;27.05;39.70;100331.70;1731646;81;21479;-65
2023/05/25 06:10:41;;;;;;;7.60;3.00;;;;;;;27.19;38.79;100330.32;1731782;82;21035;-64
2023/05/25 06:13:11;;;;;;;5.58;3.00;;;;;;;27.33;37.96;100326.98;1731781;82;21071;-63
2023/05/25 06:15:40;;;;;;;6.97;3.20;;;;;;;27.21;37.77;100329.44;1731595;81;21047;-64
2023/05/25 06:18:12;;;;;;;4.60;2.90;;;;;;;27.23;37.60;100334.18;1731870;82;21040;-63
2023/05/25 06:20:43;;;;;;;9.58;2.92;;;;;;;27.30;37.80;100337.42;1731598;82;21105;-63
2023/05/25 06:23:13;;;;;;;5.22;3.12;;;;;;;27.44;37.88;100331.27;1731810;83;21063;-64
2023/05/25 06:25:42;;;;;;;5.45;2.77;;;;;;;27.56;37.27;100326.52;1731638;83;21610;-64
2023/05/25 06:28:12;;;;;;;9.15;4.12;;;;;;;27.69;37.06;100324.31;1711674;83;21055;-65
2023/05/25 06:30:41;;;;;;;6.28;3.08;;;;;;;27.86;36.59;100328.73;1731546;82;21485;-62
2023/05/25 06:33:13;;;;;;;8.65;3.08;;;;;;;27.92;36.29;100326.06;1731495;82;21095;-64
2023/05/25 06:35:43;;;;;;;10.32;2.90;;;;;;;28.05;35.76;100322.41;1731554;82;21475;-65
2023/05/25 06:38:12;;;;;;;4.62;3.08;;;;;;;28.09;34.73;100328.25;1738603;82;21070;-63
2023/05/25 06:40:44;;;;;;;10.90;3.30;;;;;;;28.13;34.83;100330.69;1744896;81;21043;-64
2023/05/25 06:43:14;;;;;;;10.68;3.50;;;;;;;28.29;34.50;100326.98;1744923;82;21482;-64
2023/05/25 06:45:58;;;;;;;7.40;3.65;;;;;;;28.36;34.42;100331.02;1708989;82;21055;-63
2023/05/25 06:48:28;;;;;;;7.80;3.08;;;;;;;28.37;34.67;100326.22;1744907;82;21034;-65
2023/05/25 06:50:58;;;;;;;6.65;3.25;;;;;;;28.44;34.43;100330.84;1744823;82;21054;-65
2023/05/25 06:53:27;;;;;;;5.05;3.15;;;;;;;28.44;34.81;100329.43;1745055;82;21055;-63
2023/05/25 06:55:57;;;;;;;7.50;3.58;;;;;;;28.45;34.97;100324.05;1745046;82;21011;-64
2023/05/25 06:58:26;;;;;;;10.80;4.05;;;;;;;28.46;34.37;100327.12;1744877;82;21042;-64
2023/05/25 07:00:55;;;;;;;8.60;3.67;;;;;;;28.53;34.48;100331.75;1745043;82;21122;-66
2023/05/25 07:03:25;;;;;;;8.35;3.62;;;;;;;28.68;34.51;100323.52;1745156;82;21050;-63
2023/05/25 07:05:55;;;;;;;6.37;3.30;;;;;;;28.73;34.59;100331.27;1745294;82;21050;-64
2023/05/25 07:08:23;;;;;;;8.75;3.77;;;;;;;28.89;34.55;100326.09;1745092;82;21102;-63
2023/05/25 07:10:54;;;;;;;9.05;3.65;;;;;;;29.13;33.76;100329.14;1745239;82;21449;-65
2023/05/25 07:13:24;;;;;;;9.18;4.65;;;;;;;29.13;33.77;100334.20;1745020;81;21498;-63
2023/05/25 07:15:53;;;;;;;6.53;3.80;;;;;;;29.17;33.66;100329.59;1744851;81;21042;-65
2023/05/25 07:18:21;;;;;;;7.72;4.00;;;;;;;29.24;33.88;100332.77;1745047;82;21047;-64
2023/05/25 07:20:52;;;;;;;8.25;3.80;;;;;;;29.43;33.43;100332.59;1744908;82;21442;-66
2023/05/25 07:23:21;;;;;;;5.55;3.92;;;;;;;29.68;33.07;100325.37;1744934;82;21079;-64
2023/05/25 07:25:50;;;;;;;9.60;4.20;;;;;;;29.77;32.67;100326.23;1745043;81;21455;-65
2023/05/25 07:28:19;;;;;;;6.80;4.60;;;;;;;29.71;32.86;100330.38;1745059;81;21042;-66
2023/05/25 07:30:48;;;;;;;10.58;4.87;;;;;;;29.73;33.04;100335.12;1744880;82;21556;-63
2023/05/25 07:33:17;;;;;;;10.23;4.00;;;;;;;29.81;32.82;100332.06;1745152;82;21038;-64
2023/05/25 07:35:46;;;;;;;8.43;4.28;;;;;;;29.95;32.80;100342.69;1744932;81;21516;-64
2023/05/25 07:38:15;;;;;;;8.83;4.53;;;;;;;30.01;32.16;100332.89;1744885;81;21552;-64
2023/05/25 07:40:46;;;;;;;8.83;4.35;;;;;;;30.00;32.48;100335.47;1744896;82;21511;-66
2023/05/25 07:43:15;;;;;;;13.98;4.87;;;;;;;30.10;32.53;100332.94;1745050;82;21097;-66
2023/05/25 07:45:44;;;;;;;7.78;4.28;;;;;;;30.06;32.47;100329.94;1745140;81;21046;-64
2023/05/25 07:48:13;;;;;;;8.25;4.30;;;;;;;30.14;32.60;100324.88;1744883;82;21514;-66
2023/05/25 07:50:42;;;;;;;9.15;4.40;;;;;;;30.35;32.23;100334.96;1744837;81;21078;-63
2023/05/25 07:53:11;;;;;;;11.78;4.83;;;;;;;30.51;31.59;100329.64;1743725;81;21054;-64
2023/05/25 07:55:40;;;;;;;11.85;5.22;;;;;;;30.73;31.21;100328.69;1732721;82;21034;-66
2023/05/25 07:58:09;;;;;;;7.90;4.92;;;;;;;30.78;30.64;100324.27;1718957;81;21036;-64
2023/05/25 08:00:38;;;;;;;11.18;4.87;;;;;;;30.75;30.96;100324.36;1665987;85;21061;-66
2023/05/25 08:03:07;;;;;;;8.73;4.85;;;;;;;30.85;30.76;100328.26;1679281;85;21047;-70
2023/05/25 08:05:36;;;;;;;8.00;4.75;;;;;;;31.03;30.50;100329.05;1742855;82;21569;-69
2023/05/25 08:08:06;;;;;;;9.98;4.53;;;;;;;31.29;29.92;100322.55;1743143;82;21111;-73
2023/05/25 08:10:37;;;;;;;7.37;4.20;;;;;;;31.39;29.95;100323.59;1732634;82;21445;-66
2023/05/25 08:13:05;;;;;;;7.35;4.03;;;;;;;31.44;30.09;100321.98;1718170;83;21001;-67
2023/05/25 08:15:36;;;;;;;8.25;3.98;;;;;;;31.57;29.77;100316.68;1725331;82;21306;-68
2023/05/25 08:18:10;;;;;;;7.60;4.10;;;;;;;31.74;28.79;100313.79;1718060;82;21068;-71
2023/05/25 08:20:39;;;;;;;7.78;3.95;;;;;;;31.84;28.57;100309.14;1725392;82;21068;-67
2023/05/25 08:23:09;;;;;;;8.98;4.40;;;;;;;31.88;28.77;100305.66;1717892;83;21069;-66
2023/05/25 08:25:40;;;;;;;10.98;4.50;;;;;;;31.83;28.53;100315.16;1718009;83;21057;-67
2023/05/25 08:28:10;;;;;;;7.92;3.55;;;;;;;31.84;27.81;100316.81;1739830;82;21043;-67
2023/05/25 08:30:40;;;;;;;4.53;3.25;;;;;;;31.92;27.53;100314.55;1743362;82;21573;-65
2023/05/25 08:33:09;;;;;;;8.20;3.70;;;;;;;32.05;26.36;100305.54;1743325;82;21040;-66
2023/05/25 08:35:48;;;;;;;7.45;4.05;;;;;;;32.02;25.97;100306.23;1743111;82;21040;-67
2023/05/25 08:38:23;;;;;;;4.35;3.20;;;;;;;31.87;25.91;100311.91;1740016;82;21060;-68
2023/05/25 08:41:04;;;;;;;7.72;3.98;;;;;;;31.83;26.04;100315.16;1725214;82;21473;-67
2023/05/25 08:43:35;;;;;;;6.70;3.70;;;;;;;31.97;25.53;100310.09;1704794;83;21088;-67
2023/05/25 08:46:07;;;;;;;7.70;3.90;;;;;;;32.13;25.24;100307.48;1725092;83;21052;-66
2023/05/25 08:48:36;;;;;;;6.85;3.72;;;;;;;32.26;25.07;100307.00;1725237;83;21032;-69
2023/05/25 08:51:08;;;;;;;6.70;3.75;;;;;;;32.38;24.88;100311.33;1725222;82;20996;-67
2023/05/25 08:53:40;;;;;;;10.13;3.40;;;;;;;32.50;24.14;100302.88;1725373;83;21064;-68
2023/05/25 08:56:20;;;;;;;4.95;3.10;;;;;;;32.41;23.09;100304.95;1724930;82;21091;-67
2023/05/25 08:58:52;;;;;;;6.15;3.58;;;;;;;32.29;23.91;100294.37;1724473;83;21021;-66
2023/05/25 09:01:21;;;;;;;8.03;3.70;;;;;;;32.22;24.23;100299.74;1718369;83;21033;-67
2023/05/25 09:03:50;;;;;;;9.98;4.12;;;;;;;32.05;25.06;100292.20;1717313;82;21073;-69
2023/05/25 09:06:19;;;;;;;5.75;3.27;;;;;;;31.90;24.52;100291.39;1707332;84;21058;-67
2023/05/25 09:08:48;;;;;;;5.70;3.70;;;;;;;31.65;23.88;100281.81;1717441;82;21430;-66
2023/05/25 09:11:17;;;;;;;8.95;3.90;;;;;;;31.46;24.73;100284.24;1707307;83;21469;-69
2023/05/25 09:13:48;;;;;;;4.05;3.08;;;;;;;31.32;24.86;100290.72;1715041;83;21053;-70
2023/05/25 09:16:17;;;;;;;8.73;3.58;;;;;;;31.14;23.69;100288.48;1707185;82;21540;-64
2023/05/25 09:18:46;;;;;;;11.60;4.08;;;;;;;30.93;23.56;100295.45;1717138;83;21033;-66
2023/05/25 09:21:15;;;;;;;4.65;3.15;;;;;;;30.70;23.34;100284.94;1707434;83;21128;-64
2023/05/25 09:23:45;;;;;;;3.55;3.22;;;;;;;30.50;23.69;100286.39;1717372;83;21500;-66
2023/05/25 09:26:13;;;;;;;4.67;2.90;;;;;;;30.34;23.58;100288.06;1707532;83;21005;-66
2023/05/25 09:28:50;;;;;;;6.50;2.85;;;;;;;30.26;22.58;100283.23;1717017;82;21056;-65
2023/05/25 09:31:18;;;;;;;4.05;2.72;;;;;;;30.17;22.38;100283.82;1717181;83;21441;-63
2023/05/25 09:33:47;;;;;;;4.37;3.25;;;;;;;30.02;22.83;100287.96;1707547;83;21030;-65
2023/05/25 09:36:16;;;;;;;5.28;2.95;;;;;;;29.88;23.05;100274.50;1717100;82;21080;-72
2023/05/25 09:38:45;;;;;;;5.58;2.80;;;;;;;29.83;22.97;100275.48;1690534;83;21118;-67
2023/05/25 09:41:16;;;;;;;5.20;2.90;;;;;;;29.79;22.53;100270.83;1692744;84;21101;-66
2023/05/25 09:43:46;;;;;;;3.47;2.85;;;;;;;29.74;22.24;100270.41;1693625;83;21458;-65
2023/05/25 09:46:16;;;;;;;4.03;2.95;;;;;;;29.65;21.86;100276.61;1666308;84;21454;-67
2023/05/25 09:48:47;;;;;;;5.10;3.10;;;;;;;29.52;21.73;100271.34;1685364;83;21066;-66
2023/05/25 09:51:16;;;;;;;3.67;2.95;;;;;;;29.39;21.66;100258.16;1693056;84;21089;-66
2023/05/25 09:53:46;;;;;;;5.58;2.70;;;;;;;29.17;21.87;100270.90;1692779;83;21082;-65
2023/05/25 09:56:17;;;;;;;4.95;2.90;;;;;;;29.03;21.64;100263.95;1693019;83;21478;-71
2023/05/25 09:58:46;;;;;;;5.10;2.72;;;;;;;28.96;21.85;100259.34;1669618;84;21544;-66
2023/05/25 10:01:15;;;;;;;4.35;3.00;;;;;;;28.90;21.98;100247.95;1644300;83;21514;-67
2023/05/25 10:03:47;;;;;;;4.62;2.80;;;;;;;28.87;22.28;100250.84;1664838;85;21056;-64
2023/05/25 10:06:19;;;;;;;7.92;3.47;;;;;;;28.89;21.51;100249.94;1674993;85;21077;-66
2023/05/25 10:08:48;;;;;;;7.78;2.98;;;;;;;28.93;21.68;100248.71;1676383;85;21044;-65
2023/05/25 10:11:20;;;;;;;3.52;2.70;;;;;;;28.96;21.43;100235.37;1676264;85;21441;-65
2023/05/25 10:13:54;;;;;;;5.15;2.60;;;;;;;28.95;21.28;100235.12;1676367;85;21061;-66
2023/05/25 10:16:26;;;;;;;4.45;2.67;;;;;;;28.91;21.17;100227.05;1675976;85;21057;-65
2023/05/25 10:19:17;;;;;;;4.85;2.75;;;;;;;28.87;20.99;100235.33;1676031;85;21554;-66
2023/05/25 10:22:00;;;;;;;4.17;3.17;;;;;;;28.81;21.22;100232.94;1612325;88;21131;-66
2023/05/25 10:25:07;;;;;;;7.00;3.15;;;;;;;28.69;21.67;100231.55;1628808;87;21040;-65
2023/05/25 10:27:43;;;;;;;5.03;2.92;;;;;;;28.70;21.45;100228.15;1641063;87;21517;-69
2023/05/25 10:30:13;;;;;;;5.58;3.30;;;;;;;28.63;21.58;100215.92;1646375;86;21103;-67
2023/05/25 10:32:44;;;;;;;5.42;2.87;;;;;;;28.65;22.00;100233.34;1645542;84;21495;-67
2023/05/25 10:35:14;;;;;;;11.10;3.00;;;;;;;28.67;21.42;100223.98;1620476;87;21600;-68
2023/05/25 10:37:44;;;;;;;4.95;2.58;;;;;;;28.62;21.04;100233.16;1645516;86;21806;-66
2023/05/25 10:40:14;;;;;;;4.67;2.72;;;;;;;28.56;20.58;100231.59;1665714;85;21096;-67
2023/05/25 10:42:45;;;;;;;5.17;2.65;;;;;;;28.54;20.30;100229.10;1669384;85;21449;-66
2023/05/25 10:45:14;;;;;;;3.95;2.30;;;;;;;28.48;20.01;100236.59;1669044;86;21136;-66
2023/05/25 10:47:45;;;;;;;5.72;2.85;;;;;;;28.48;20.01;100236.59;1669217;86;21017;-66
2023/05/25 10:50:26;;;;;;;6.60;2.98;;;;;;;28.43;20.84;100236.73;1669092;86;21147;-66
2023/05/25 10:53:01;;;;;;;4.10;3.00;;;;;;;28.42;22.70;100234.49;1669076;86;21141;-68
2023/05/25 10:55:52;;;;;;;5.70;3.20;;;;;;;28.40;23.78;100234.81;1668873;85;21508;-66
2023/05/25 10:58:22;;;;;;;9.25;2.92;;;;;;;28.40;24.70;100234.81;1668896;86;21120;-66
2023/05/25 11:01:08;;;;;;;6.30;3.10;;;;;;;28.45;24.14;100245.13;1669503;86;21052;-65
2023/05/25 11:04:12;;;;;;;7.05;3.45;;;;;;;28.50;23.77;100239.35;1649236;86;21178;-67
2023/05/25 11:06:50;;;;;;;7.47;3.45;;;;;;;28.44;25.03;100235.58;1670375;84;21068;-67
2023/05/25 11:09:31;;;;;;;8.85;3.50;;;;;;;28.23;28.65;100240.86;1670600;84;21048;-66
2023/05/25 11:12:03;;;;;;;7.45;3.90;;;;;;;27.92;29.72;100238.75;1670648;85;21036;-66
2023/05/25 11:14:35;;;;;;;8.25;4.22;;;;;;;27.63;30.89;100220.83;1670580;84;21080;-66
2023/05/25 11:17:10;;;;;;;7.62;4.35;;;;;;;27.35;31.74;100231.26;1670388;86;21538;-67
2023/05/25 11:19:47;;;;;;;6.35;3.70;;;;;;;27.25;32.18;100225.81;1670381;84;21080;-66
2023/05/25 11:22:39;;;;;;;6.62;4.20;;;;;;;27.04;32.99;100240.03;1649473;86;21091;-66
2023/05/25 11:25:35;;;;;;;9.33;3.87;;;;;;;27.04;32.99;100240.03;1670139;86;21043;-67
2023/05/25 11:28:06;;;;;;;6.35;3.25;;;;;;;26.97;33.30;100229.16;1670367;86;21498;-67
2023/05/25 11:30:38;;;;;;;6.08;3.40;;;;;;;26.83;33.82;100232.53;1670500;84;21103;-66
2023/05/25 11:33:08;;;;;;;4.33;3.22;;;;;;;26.73;34.13;100240.58;1670544;85;21056;-66
2023/05/25 11:35:38;;;;;;;7.17;3.45;;;;;;;26.68;34.31;100242.08;1670373;86;21513;-67
2023/05/25 11:38:08;;;;;;;9.85;4.12;;;;;;;26.63;34.45;100235.69;1670562;86;21087;-64
2023/05/25 11:40:37;;;;;;;7.78;3.40;;;;;;;26.62;34.76;100248.91;1682028;84;21515;-66
2023/05/25 11:43:08;;;;;;;16.07;4.70;;;;;;;26.64;35.01;100248.59;1724313;82;21457;-62